Latest Coastal Weather Observations for Adelaide Airport

IDS60701

Issued at 1:35 pm CST Sunday 21 September 2014 (issued every 10 minutes, with the page automatically refreshed every 10 minutes)

About coastal observations | Map of coastal stations | Coastal observations for SA | Marine services | Other Formats
Station Details ID: 023034 Name: ADELAIDE AIRPORT Lat: -34.95 Lon: 138.52 Height: 2.0 m
Data from the previous 72 hours. | See also: Recent months at Adelaide Airport
Date/Time
CST
Temp

°C
Wind Pressure Rain
since 9am
mm
Weather Cloud Vis
km
Sea
Height
m
Swell
Dir
 
Speed
knots
Gust
knots
hPa Trend Height
m
Period
s
Dir
21/01:30pm 18.9 WSW 8 10 1027.7 - 0.0 - - 10 - - - -
21/01:00pm 18.3 WSW 8 10 1028.2 - 0.0 - - 10 - - - -
21/12:30pm 17.9 SW 11 14 1029.0 - 0.0 - - 10 - - - -
21/12:00pm 18.3 WSW 11 14 1029.4 F 0.0 Fine Clear 40 - - - -
21/11:30am 18.3 WSW 7 9 1029.5 - 0.0 - - 10 - - - -
21/11:00am 18.6 WSW 8 10 1029.8 - 0.0 - - 10 - - - -
21/10:30am 18.4 WSW 8 10 1030.1 - 0.0 - - 10 - - - -
21/10:00am 17.8 NNW 4 7 1030.3 - 0.0 - - 10 - - - -
21/09:30am 19.3 NNE 6 10 1030.4 - 0.0 - - 10 - - - -
21/09:00am 17.3 W 3 4 1030.4 R 0.0 Fine Clear 40 - - - -
21/08:30am 17.2 W 2 4 1030.2 - 0.0 - - 10 - - - -
21/08:00am 14.9 CALM 0 0 1029.9 - 0.0 - - 10 - - - -
21/07:30am 11.8 ENE 1 4 1029.8 - 0.0 - - 10 - - - -
21/07:00am 9.2 ESE 4 5 1029.6 - 0.0 - - 10 - - - -
21/06:30am 6.8 CALM 0 0 1029.4 - 0.0 - - 10 - - - -
21/06:00am 7.6 CALM 0 0 1028.9 R 0.0 Fine Clear 40 - - - -
21/05:30am 7.7 SSE 3 4 1028.5 - 0.0 - - 10 - - - -
21/05:00am 9.0 SSW 5 6 1028.1 - 0.0 - - 10 - - - -
21/04:30am 8.9 SE 2 5 1027.7 - 0.0 - - 10 - - - -
21/04:00am 9.8 NE 0 0 1027.4 - 0.0 - - 10 - - - -
21/03:30am 11.2 ENE 1 4 1027.1 - 0.0 - - 10 - - - -
21/03:00am 11.2 CALM 0 0 1027.1 R 0.0 Fine Clear 40 - - - -
21/02:30am 11.5 E 3 5 1027.2 - 0.0 - - 10 - - - -
21/02:00am 13.1 ENE 6 9 1027.2 - 0.0 - - 10 - - - -
21/01:30am 13.1 ENE 8 13 1027.5 - 0.0 - - 10 - - - -
21/01:00am 13.9 E 9 12 1027.5 - 0.0 - - 10 - - - -
21/12:30am 14.5 ENE 9 14 1027.5 - 0.0 - - 10 - - - -
21/12:00am 14.6 ENE 12 17 1027.5 R 0.0 Fine Clear 40 - - - -
 
Date/Time
CST
Temp

°C
Wind Pressure Rain
since 9am
mm
Weather Cloud Vis
km
Sea
Height
m
Swell
Dir
 
Speed
knots
Gust
knots
hPa Trend Height
m
Period
s
Dir
20/11:30pm 14.3 E 11 14 1027.3 - 0.0 - - 10 - - - -
20/11:00pm 13.4 ENE 7 12 1027.5 - 0.0 - - 10 - - - -
20/10:30pm 14.0 E 7 9 1027.6 - 0.0 - - 10 - - - -
20/10:00pm 15.1 E 10 15 1027.6 - 0.0 - - 10 - - - -
20/09:30pm 15.5 E 11 16 1027.6 - 0.0 - - 10 - - - -
20/09:00pm 16.1 E 11 16 1027.4 R 0.0 Fine Clear 40 - - - -
20/08:30pm 16.3 ESE 11 17 1027.2 - 0.0 - - 10 - - - -
20/08:00pm 16.6 E 11 15 1027.0 - 0.0 - - 10 - - - -
20/07:30pm 17.3 E 11 14 1026.7 - 0.0 - - 10 - - - -
20/07:00pm 18.1 E 12 16 1026.4 - 0.0 - - 10 - - - -
20/06:30pm 17.9 ESE 12 17 1026.0 - 0.0 - - 10 - - - -
20/06:00pm 18.7 ESE 11 15 1025.9 R 0.0 Fine Mostly clear 50 - - - -
20/05:30pm 18.3 SSW 8 10 1025.6 - 0.0 - - 10 - - - -
20/05:00pm 19.3 SSW 9 12 1025.1 - 0.0 - - 10 - - - -
20/04:30pm 19.8 SSW 9 11 1024.9 - 0.0 - - 10 - - - -
20/04:00pm 20.3 SSW 10 13 1024.7 - 0.0 - - 10 - - - -
20/03:30pm 20.1 SW 12 15 1024.6 - 0.0 - - 10 - - - -
20/03:00pm 20.2 SW 11 14 1024.6 R 0.0 Fine Mostly clear 40 - - - -
20/02:30pm 21.1 WSW 9 10 1024.5 - 0.0 - - 10 - - - -
20/02:00pm 19.8 WSW 9 11 1024.6 - 0.0 - - 10 - - - -
20/01:30pm 19.9 SW 8 10 1024.7 - 0.0 - - 10 - - - -
20/01:00pm 18.9 WSW 9 11 1024.9 - 0.0 - - 10 - - - -
20/12:30pm 18.0 WSW 10 12 1025.2 - 0.0 - - 10 - - - -
20/12:00pm 17.9 WSW 9 12 1025.6 R 0.0 Fine Mostly clear 35 - - - -
20/11:30am 18.0 WSW 8 10 1025.9 - 0.0 - - 10 - - - -
20/11:00am 17.6 NW 6 9 1026.3 - 0.0 - - 10 - - - -
20/10:30am 20.4 N 8 11 1026.5 - 0.0 - - 10 - - - -
20/10:00am 19.8 NE 8 10 1026.6 - 0.0 - - 10 - - - -
20/09:30am 18.8 NE 8 12 1026.6 - 0.0 - - 10 - - - -
20/09:00am 18.0 NE 11 14 1026.3 R 0.2 Fine Mostly clear 30 - - - -
20/08:30am 17.3 NE 11 14 1026.0 - 0.2 - - 10 - - - -
20/08:00am 16.3 ENE 10 15 1025.8 - 0.2 - - 10 - - - -
20/07:30am 14.8 NE 6 8 1025.4 - 0.2 - - 10 - - - -
20/07:00am 11.9 NE 6 7 1024.9 - 0.2 - - 10 - - - -
20/06:30am 11.1 ENE 8 10 1024.6 - 0.2 - - 10 - - - -
20/06:00am 9.6 ENE 7 9 1024.3 R 0.2 Fine Partly cloudy 30 - - - -
20/05:30am 9.9 NE 6 9 1024.1 - 0.2 - - 10 - - - -
20/05:00am 9.8 NE 8 10 1023.5 - 0.2 - - 10 - - - -
20/04:30am 11.2 ENE 8 10 1023.2 - 0.2 - - 10 - - - -
20/04:00am 11.6 ENE 8 11 1023.0 - 0.2 - - 10 - - - -
20/03:30am 11.7 ENE 8 11 1023.0 - 0.2 - - 10 - - - -
20/03:00am 12.3 ENE 9 12 1023.0 R 0.2 Fine Partly cloudy 30 - - - -
20/02:30am 12.7 ENE 11 15 1022.8 - 0.2 - - 10 - - - -
20/02:00am 12.8 ENE 11 15 1022.9 - 0.2 - - 10 - - - -
20/01:30am 11.2 E 8 10 1023.2 - 0.2 - - 10 - - - -
20/01:00am 12.4 E 9 12 1023.2 - 0.2 - - 10 - - - -
20/12:30am 12.8 E 9 13 1023.1 - 0.2 - - 10 - - - -
20/12:00am 13.0 E 12 17 1023.1 F 0.2 Fine Partly cloudy 30 - - - -
 
Date/Time
CST
Temp

°C
Wind Pressure Rain
since 9am
mm
Weather Cloud Vis
km
Sea
Height
m
Swell
Dir
 
Speed
knots
Gust
knots
hPa Trend Height
m
Period
s
Dir
19/11:30pm 12.1 E 9 14 1023.2 - 0.2 - - 10 - - - -
19/11:00pm 11.7 E 8 11 1023.4 - 0.2 - - 10 - - - -
19/10:30pm 11.7 E 8 11 1023.6 - 0.2 - - 10 - - - -
19/10:00pm 11.8 E 6 8 1023.7 - 0.2 - - 10 - - - -
19/09:30pm 12.7 E 7 9 1023.8 - 0.2 - - 10 - - - -
19/09:00pm 13.0 E 10 14 1023.9 S 0.2 Fine Partly cloudy 30 - - - -
19/08:30pm 13.5 ESE 13 17 1023.8 - 0.2 - - 10 - - - -
19/08:00pm 12.8 ESE 5 6 1023.8 - 0.2 - - 10 - - - -
19/07:30pm 13.9 ESE 3 4 1023.7 - 0.2 - - 10 - - - -
19/07:00pm 13.7 SSE 5 7 1023.5 - 0.2 - - 10 - - - -
19/06:30pm 14.8 SSE 7 9 1023.2 - 0.2 - - 10 - - - -
19/06:00pm 15.5 SSE 8 11 1023.0 F 0.2 Fine Mostly clear 40 - - - -
19/05:30pm 16.2 SSW 8 10 1022.9 - 0.2 - - 10 - - - -
19/05:00pm 16.4 SSW 11 13 1022.8 - 0.2 - - 10 - - - -
19/04:30pm 16.6 SSW 9 12 1022.7 - 0.2 - - 10 - - - -
19/04:00pm 17.2 S 10 13 1022.8 - 0.2 - - 10 - - - -
19/03:30pm 16.4 SSW 10 14 1023.0 - 0.2 - - 10 - - - -
19/03:00pm 17.0 SSW 10 13 1023.1 F 0.2 Fine Mostly clear 35 - - - -
19/02:30pm 17.1 SW 11 14 1023.4 - 0.2 - - 10 - - - -
19/02:00pm 16.8 SW 11 14 1023.4 - 0.2 - - 10 - - - -
19/01:30pm 16.0 SW 11 14 1023.7 - 0.2 - - 10 - - - -
19/01:00pm 15.9 SW 10 14 1024.0 - 0.0 - - 10 - - - -
19/12:30pm 15.2 SW 10 14 1024.5 - 0.0 - Partly cloudy 10 - - - -
19/12:00pm 15.7 E 4 9 1024.8 F 0.0 Fine Partly cloudy 30 - - - -
19/11:30am 16.5 NE 6 8 1025.1 - 0.0 - Partly cloudy 10 - - - -
19/11:00am 16.2 NNE 13 14 1025.3 - 0.0 - Partly cloudy 10 - - - -
19/10:30am 16.8 NE 10 15 1025.7 - 0.0 - Mostly clear 10 - - - -
19/10:00am 16.7 NE 9 15 1025.9 - 0.0 - Mostly clear 10 - - - -
19/09:30am 16.2 NE 9 12 1026.1 - 0.0 - Mostly clear 10 - - - -
19/09:00am 15.3 ENE 7 10 1026.2 S 0.0 Fine Mostly clear 30 - - - -
19/08:30am 14.4 ENE 8 10 1026.1 - 0.0 - - 10 - - - -
19/08:00am 13.2 ENE 7 9 1025.8 - 0.0 - - 10 - - - -
19/07:30am 11.8 ENE 5 6 1025.6 - 0.0 - - 10 - - - -
19/07:00am 8.8 ENE 2 3 1025.4 - 0.0 - - 10 - - - -
19/06:30am 7.4 ENE 5 6 1025.2 - 0.0 - - 10 - - - -
19/06:00am 6.1 ENE 2 4 1025.0 F 0.0 Fine Mostly clear 30 - - - -
19/05:30am 7.6 CALM 0 0 1024.8 - 0.0 - - 10 - - - -
19/05:00am 7.6 E 5 5 1024.6 - 0.0 - - 10 - - - -
19/04:30am 8.3 E 6 8 1024.5 - 0.0 - - 10 - - - -
19/04:00am 8.4 E 5 6 1024.5 - 0.0 - - 10 - - - -
19/03:30am 9.0 ESE 8 11 1024.7 - 0.0 - - 10 - - - -
19/03:00am 9.1 ESE 8 10 1024.6 F 0.0 Fine Clear 30 - - - -
19/02:30am 8.8 E 6 8 1024.8 - 0.0 - - 10 - - - -
19/02:00am 8.9 E 6 8 1025.0 - 0.0 - - 10 - - - -
19/01:30am 8.6 ESE 7 9 1025.1 - 0.0 - - 10 - - - -
19/01:00am 8.6 ESE 6 7 1025.3 - 0.0 - - 10 - - - -
19/12:30am 8.8 ESE 7 9 1025.5 - 0.0 - - 10 - - - -
19/12:00am 9.5 ESE 6 8 1025.7 F 0.0 Fine Mostly clear 30 - - - -
 
Date/Time
CST
Temp

°C
Wind Pressure Rain
since 9am
mm
Weather Cloud Vis
km
Sea
Height
m
Swell
Dir
 
Speed
knots
Gust
knots
hPa Trend Height
m
Period
s
Dir
18/11:30pm 10.2 ESE 7 8 1025.8 - 0.0 - Partly cloudy 10 - - - -
18/11:00pm 10.2 ESE 9 14 1025.8 - 0.0 - Partly cloudy 10 - - - -
18/10:30pm 9.6 SE 9 11 1026.0 - 0.0 - - 10 - - - -
18/10:00pm 9.6 SE 6 10 1026.2 - 0.0 - - 10 - - - -
18/09:30pm 9.6 ESE 5 6 1026.4 - 0.0 - - 10 - - - -
18/09:00pm 9.5 ESE 6 7 1026.5 R 0.0 Fine Partly cloudy 30 - - - -
18/08:30pm 9.9 E 8 10 1026.4 - 0.0 - - 10 - - - -
18/08:00pm 10.4 ESE 1 5 1026.5 - 0.0 - Partly cloudy 10 - - - -
18/07:30pm 10.8 S 5 6 1026.2 - 0.0 - Partly cloudy 10 - - - -
18/07:00pm 11.2 SSE 7 8 1025.8 - 0.0 - Partly cloudy 10 - - - -
18/06:30pm 11.9 SSE 8 12 1025.7 - 0.0 - Mostly clear 10 - - - -
18/06:00pm 12.5 SSE 9 10 1025.4 F 0.0 Distant precip. Mostly cloudy 30 - - - -
18/05:30pm 13.0 SSE 10 12 1025.3 - 0.0 - Mostly clear 10 - - - -
18/05:00pm 12.9 SSW 9 11 1025.2 - 0.0 Showers Mostly clear 10 - - - -
18/04:30pm 13.7 SW 11 16 1025.2 - 0.0 - Mostly clear 10 - - - -
18/04:00pm 14.2 SW 10 14 1024.8 - 0.0 - Mostly clear 10 - - - -
18/03:30pm 14.1 W 6 8 1024.8 - 0.0 - Mostly clear 10 - - - -
18/03:00pm 13.3 W 6 8 1024.9 S 0.0 Distant precip. Mostly cloudy 30 - - - -
18/02:30pm 12.4 W 7 8 1025.3 - 0.0 - Mostly clear 10 - - - -
18/02:00pm 12.3 WSW 8 10 1025.4 - 0.0 - Mostly clear 10 - - - -

Other Formats:

Comma delimited format used in spreadsheet applications
http://www.bom.gov.au/fwo/IDS60701/IDS60701.94672.axf

JavaScript Object Notation format (JSON) in row-major order
http://www.bom.gov.au/fwo/IDS60701/IDS60701.94672.json